Johnstown, PA (15906)

3:43 PM EDT on September 02, 2014 (GMT -0400)
Cambria City | Change Station
CLOSE
Current Station
Personal Weather Station
Location: Johnstown, PA
Elevation: 1160 ft
Nearby Weather Stations

Elev 1160 ft 40.34 °N, 78.93 °W | Updated 12 minutes ago

Scattered Clouds
Scattered Clouds
84.8 °F
Feels Like 90 °F
N
2.0
Wind Variable Wind from WSW
Gusts 8.0 mph

Today
High -- | Low -- °F
--% Chance of Precip.
Yesterday
High -- | Low -- °F
Precip. -- in
6:44 AM 7:45 PM
First Quarter, 54% visible
Pressure 29.92 in
Visibility 10.0 miles
Clouds Few 3100 ft
Scattered Clouds 3900 ft
Heat Index 90 °F
Dew Point 70 °F
Humidity 62%
Rainfall 0.00 in
Snow Depth Not available.
UV 6 out of 12
Pollen 8.80 out of 12
Air Quality Not available.
Flu Activity Not available.
METAR KJST 021854Z AUTO 22010KT 10SM FEW031 SCT039 26/19 A2997 RMK AO2 SLP130 T02610189

More Conditions Fewer Conditions

Pressure 29.92 in
Visibility 10.0 miles
Clouds Few 3100 ft
Scattered Clouds 3900 ft
Heat Index 90 °F
Dew Point 70 °F
Humidity 62%
Rainfall 0.00 in
Snow Depth Not available.
UV 6 out of 12
Pollen 8.80 out of 12
Air Quality Not available.
Flu Activity Not available.
METAR KJST 021854Z AUTO 22010KT 10SM FEW031 SCT039 26/19 A2997 RMK AO2 SLP130 T02610189

More Conditions Fewer Conditions

Nowcast | as of 3:18 PM EDT on September 2, 2014

Scattered showers and thunderstorms will begin to impact the region after 330 PM. Some of the thunderstorms will bring a brief period of very heavy rain and gusty winds in excess of 40 mph.

×

10-Day Weather Forecast

Almanac

Astronomy

Sep. 02, 2014 Rise Set
Actual Time 6:44 AM EDT 7:45 PM EDT
Civil Twilight 6:16 AM EDT 8:13 PM EDT
Nautical Twilight 5:42 AM EDT 8:46 PM EDT
Astronomical Twilight 5:08 AM EDT 9:21 PM EDT
Moon 2:27 PM EDT No Moon Set
Length of Visible Light 13h 57m
Length of Day
13h 01m
Tomorrow will be 2m 35s shorter.
First Quarter, 54% of the Moon is Illuminated
Today
First Quarter
Sep 8
Full
Sep 15
Last Quarter
Sep 24
New
Oct 1
First Quarter

Today's Extremes

State Highs State Lows

Community

WunderPhotos

Upload Photos

1,749,751 photos uploaded!

WunderBlogs® & News

By Dr. Jeff Masters
Director of Meteorology, Weather Underground
By Kari Strenfel
Meteorologist, Weather Underground
By Christopher C. Burt
Weather Historian, Weather Underground
September 2, 2014
September 2, 2014
September 2, 2014

Nearby

Snow Depth

Station Depth Elevation
No new snow has been reported.

Earthquake Activity

City Distance Mag. Time & Date
No recent earthquake activity has been reported nearby.
Minimum magnitude displayed is 2.5.

Coastal Water Temperatures

Place Temperature
No Stations Reporting

Nearby Weather Stations